createdAt,value
2022-10-19T00:02:12.493Z,4.72
2022-10-19T00:04:39.071Z,4.42
2022-10-19T00:07:05.724Z,4.27
2022-10-19T00:09:32.496Z,4.37
2022-10-19T00:11:59.287Z,4.10
2022-10-19T00:14:25.867Z,4.35
2022-10-19T00:16:53.249Z,4.34
2022-10-19T00:19:24.479Z,4.40
2022-10-19T00:21:52.452Z,4.44
2022-10-19T00:24:19.591Z,4.33
2022-10-19T00:26:47.838Z,4.25
2022-10-19T00:29:16.973Z,4.42
2022-10-19T00:31:44.061Z,4.44
2022-10-19T00:34:10.985Z,4.46
2022-10-19T00:36:39.741Z,4.34
2022-10-19T00:39:10.501Z,4.62
2022-10-19T00:41:39.187Z,4.64
2022-10-19T00:44:27.472Z,4.64
2022-10-19T00:46:57.252Z,4.57
2022-10-19T00:49:27.179Z,4.68
2022-10-19T00:51:58.197Z,4.54
2022-10-19T00:54:25.617Z,4.62
2022-10-19T00:56:55.137Z,4.58
2022-10-19T00:59:25.115Z,4.57
2022-10-19T01:01:53.617Z,4.34
2022-10-19T01:04:22.174Z,4.27
2022-10-19T01:06:49.073Z,4.30
2022-10-19T01:09:15.983Z,4.32
2022-10-19T01:12:01.200Z,4.27
2022-10-19T01:14:59.120Z,4.35
2022-10-19T01:17:59.560Z,4.29
2022-10-19T01:20:32.366Z,4.30
2022-10-19T01:23:23.484Z,4.22
2022-10-19T01:25:56.873Z,4.26
2022-10-19T01:28:51.830Z,4.26
2022-10-19T01:31:35.717Z,4.26
2022-10-19T01:34:11.325Z,4.22
2022-10-19T01:36:52.944Z,4.18
2022-10-19T01:39:31.234Z,4.12
2022-10-19T01:42:03.586Z,4.22
2022-10-19T01:44:40.038Z,4.22
2022-10-19T01:47:12.261Z,4.14
2022-10-19T01:49:42.087Z,4.13
2022-10-19T01:52:12.665Z,4.09
2022-10-19T01:54:46.926Z,4.04
2022-10-19T01:57:21.553Z,4.07
2022-10-19T01:59:49.498Z,3.93
2022-10-19T02:02:18.099Z,3.84
2022-10-19T02:04:47.108Z,3.86
2022-10-19T02:07:14.216Z,3.81
2022-10-19T02:09:40.799Z,3.56
2022-10-19T02:12:11.353Z,3.45
2022-10-19T02:14:44.357Z,3.40
2022-10-19T02:17:17.056Z,3.31
2022-10-19T02:19:43.791Z,3.11
2022-10-19T02:22:12.235Z,3.15
2022-10-19T02:24:38.929Z,3.06
2022-10-19T02:27:07.858Z,3.08
2022-10-19T02:29:36.827Z,3.20
2022-10-19T02:32:04.473Z,3.24
2022-10-19T02:34:31.701Z,3.18
2022-10-19T02:36:58.664Z,3.25
2022-10-19T02:39:25.752Z,3.20
2022-10-19T02:42:11.503Z,3.32
2022-10-19T02:44:53.197Z,3.36
2022-10-19T02:47:30.252Z,3.36
2022-10-19T02:49:56.888Z,3.44
2022-10-19T02:52:23.485Z,3.40
2022-10-19T02:54:50.081Z,3.27
2022-10-19T02:57:21.299Z,3.28
2022-10-19T02:59:47.914Z,3.37
2022-10-19T03:02:16.407Z,3.55
2022-10-19T03:04:44.713Z,3.51
2022-10-19T03:07:16.094Z,3.51
2022-10-19T03:09:43.839Z,3.44
2022-10-19T03:12:12.293Z,3.34
2022-10-19T03:14:39.314Z,3.43
2022-10-19T03:17:06.021Z,3.15
2022-10-19T03:19:34.317Z,3.27
2022-10-19T03:22:01.123Z,3.27
2022-10-19T03:24:27.985Z,3.26
2022-10-19T03:26:54.692Z,3.18
2022-10-19T03:29:21.323Z,3.05
2022-10-19T03:31:48.089Z,3.04
2022-10-19T03:34:14.710Z,3.01
2022-10-19T03:36:42.481Z,2.78
2022-10-19T03:39:12.468Z,2.83
2022-10-19T03:41:39.503Z,2.86
2022-10-19T03:44:07.182Z,2.91
2022-10-19T03:46:35.767Z,2.83
2022-10-19T03:49:03.405Z,2.73
2022-10-19T03:51:31.445Z,2.66
2022-10-19T03:54:01.383Z,2.78
2022-10-19T03:56:29.950Z,2.71
2022-10-19T03:58:58.921Z,2.79
2022-10-19T04:01:31.651Z,2.75
2022-10-19T04:04:01.037Z,2.86
2022-10-19T04:06:30.495Z,2.92
2022-10-19T04:08:58.296Z,2.99
2022-10-19T04:11:27.823Z,2.98
2022-10-19T04:13:56.147Z,2.95
2022-10-19T04:16:24.555Z,2.79
2022-10-19T04:18:51.675Z,2.79
2022-10-19T04:21:33.095Z,2.89
2022-10-19T04:24:14.201Z,2.84
2022-10-19T04:26:55.152Z,2.85
2022-10-19T04:29:26.456Z,2.83
2022-10-19T04:31:56.287Z,2.75
2022-10-19T04:34:23.192Z,2.79
2022-10-19T04:36:50.167Z,2.80
2022-10-19T04:39:16.913Z,2.62
2022-10-19T04:41:43.585Z,2.52
2022-10-19T04:44:10.182Z,2.56
2022-10-19T04:46:37.608Z,2.51
2022-10-19T04:49:06.227Z,2.47
2022-10-19T04:51:32.952Z,2.53
2022-10-19T04:54:00.069Z,2.64
2022-10-19T04:56:27.551Z,2.66
2022-10-19T04:58:56.580Z,2.80
2022-10-19T05:01:24.241Z,2.82
2022-10-19T05:03:58.172Z,2.90
2022-10-19T05:06:26.367Z,2.86
2022-10-19T05:08:53.627Z,3.07
2022-10-19T05:11:20.924Z,3.26
2022-10-19T05:13:48.124Z,3.55
2022-10-19T05:16:18.261Z,4.23
2022-10-19T05:18:53.267Z,5.18
2022-10-19T05:21:21.855Z,6.18
2022-10-19T05:23:52.312Z,7.18
2022-10-19T05:26:21.792Z,7.91
2022-10-19T05:28:49.920Z,8.47
2022-10-19T05:31:20.175Z,8.98
2022-10-19T05:33:47.396Z,9.09
2022-10-19T05:36:15.813Z,9.76
2022-10-19T05:38:44.059Z,9.96
2022-10-19T05:41:11.551Z,9.96
2022-10-19T05:43:39.322Z,9.81
2022-10-19T05:46:08.633Z,9.96
2022-10-19T05:48:35.963Z,9.71
2022-10-19T05:51:05.357Z,9.90
2022-10-19T05:53:33.375Z,10.12
2022-10-19T05:56:00.039Z,10.03
2022-10-19T05:58:27.036Z,10.11
2022-10-19T06:00:58.597Z,10.10
2022-10-19T06:03:26.052Z,9.38
2022-10-19T06:05:54.091Z,8.39
2022-10-19T06:08:22.208Z,7.93
2022-10-19T06:10:49.710Z,7.96
2022-10-19T06:13:18.486Z,7.85
2022-10-19T06:15:45.191Z,8.20
2022-10-19T06:18:13.096Z,7.78
2022-10-19T06:20:42.004Z,7.69
2022-10-19T06:23:09.348Z,7.65
2022-10-19T06:25:36.863Z,7.24
2022-10-19T06:28:04.160Z,7.16
2022-10-19T06:30:30.793Z,7.11
2022-10-19T06:32:59.019Z,7.41
2022-10-19T06:35:25.898Z,7.81
2022-10-19T06:37:52.614Z,7.92
2022-10-19T06:40:19.382Z,8.19
2022-10-19T06:42:46.242Z,8.43
2022-10-19T06:45:12.945Z,8.19
2022-10-19T06:50:14.352Z,8.72
2022-10-19T06:52:41.407Z,8.94
2022-10-19T06:55:08.722Z,8.98
2022-10-19T06:57:35.875Z,9.42
2022-10-19T07:00:04.031Z,10.15
2022-10-19T07:02:30.811Z,10.45
2022-10-19T07:04:57.442Z,10.62
2022-10-19T07:07:24.350Z,10.92
2022-10-19T07:09:51.129Z,10.86
2022-10-19T07:12:17.736Z,10.70
2022-10-19T07:14:44.364Z,10.46
2022-10-19T07:17:12.289Z,10.13
2022-10-19T07:19:39.018Z,10.09
2022-10-19T07:22:06.936Z,9.98
2022-10-19T07:24:33.526Z,9.84
2022-10-19T07:27:00.213Z,9.95
2022-10-19T07:29:26.963Z,9.93
2022-10-19T07:31:53.715Z,9.79
2022-10-19T07:34:23.120Z,9.93
2022-10-19T07:36:52.758Z,10.22
2022-10-19T07:39:19.529Z,10.39
2022-10-19T07:41:46.691Z,10.32
2022-10-19T07:44:15.891Z,10.32
2022-10-19T07:46:43.107Z,10.52
2022-10-19T07:49:20.007Z,10.66
2022-10-19T07:51:47.563Z,10.85
2022-10-19T07:54:14.292Z,11.12
2022-10-19T07:56:41.022Z,11.51
2022-10-19T07:59:07.761Z,11.71
2022-10-19T08:01:41.686Z,11.97
2022-10-19T08:06:55.383Z,12.20
2022-10-19T08:12:13.800Z,12.47
2022-10-19T08:14:41.451Z,12.53
2022-10-19T08:17:12.054Z,12.48
2022-10-19T08:19:43.343Z,12.95
2022-10-19T08:22:10.657Z,13.10
2022-10-19T08:24:37.503Z,13.35
2022-10-19T08:27:04.179Z,13.47
2022-10-19T08:29:31.697Z,13.79
2022-10-19T08:31:59.550Z,13.98
2022-10-19T08:34:26.752Z,14.26
2022-10-19T08:36:53.556Z,14.30
2022-10-19T08:39:20.143Z,14.67
2022-10-19T08:42:04.223Z,14.82
2022-10-19T08:44:48.874Z,14.70
2022-10-19T08:47:26.653Z,15.15
2022-10-19T08:49:54.011Z,15.21
2022-10-19T08:52:34.387Z,15.00
2022-10-19T08:55:15.112Z,14.86
2022-10-19T08:58:06.072Z,14.88
2022-10-19T09:00:42.756Z,14.89
2022-10-19T09:03:43.878Z,14.95
2022-10-19T09:06:29.480Z,15.47
2022-10-19T09:08:57.965Z,15.81
2022-10-19T09:11:32.842Z,16.22
2022-10-19T09:14:15.042Z,15.89
2022-10-19T09:16:42.142Z,16.33
2022-10-19T09:19:23.047Z,16.62
2022-10-19T09:22:01.282Z,16.59
2022-10-19T09:24:51.927Z,16.53
2022-10-19T09:27:29.921Z,16.57
2022-10-19T09:30:04.874Z,16.88
2022-10-19T09:32:38.101Z,16.91
2022-10-19T09:35:16.014Z,16.71
2022-10-19T09:37:47.097Z,16.70
2022-10-19T09:40:25.069Z,16.98
2022-10-19T09:42:57.198Z,16.87
2022-10-19T09:45:36.544Z,17.18
2022-10-19T09:48:13.422Z,17.14
2022-10-19T09:50:43.636Z,17.14
2022-10-19T09:53:19.688Z,17.31
2022-10-19T09:55:51.632Z,17.45
2022-10-19T09:58:20.226Z,17.34
2022-10-19T10:00:54.879Z,17.60
2022-10-19T10:03:35.477Z,17.47
2022-10-19T10:06:06.614Z,17.73
2022-10-19T10:08:45.153Z,17.65
2022-10-19T10:11:13.038Z,17.70
2022-10-19T10:13:42.829Z,18.03
2022-10-19T10:16:14.138Z,17.90
2022-10-19T10:18:49.883Z,17.97
2022-10-19T10:21:34.863Z,17.60
2022-10-19T10:24:06.586Z,17.56
2022-10-19T10:26:42.584Z,17.66
2022-10-19T10:29:28.793Z,17.84
2022-10-19T10:32:00.428Z,17.63
2022-10-19T10:34:51.903Z,18.03
2022-10-19T10:37:24.898Z,18.12
2022-10-19T10:39:59.234Z,18.22
2022-10-19T10:42:35.198Z,18.37
2022-10-19T10:45:02.982Z,18.52
2022-10-19T10:47:30.988Z,18.53
2022-10-19T10:49:59.065Z,18.64
2022-10-19T10:52:29.113Z,18.75
2022-10-19T10:55:01.761Z,18.63
2022-10-19T10:57:53.029Z,18.66
2022-10-19T11:00:22.442Z,18.73
2022-10-19T11:03:12.149Z,18.60
2022-10-19T11:05:46.774Z,18.50
2022-10-19T11:08:20.989Z,18.64
2022-10-19T11:11:00.693Z,18.69
2022-10-19T11:13:39.321Z,18.60
2022-10-19T11:16:24.206Z,18.75
2022-10-19T11:18:57.212Z,18.70
2022-10-19T11:21:48.683Z,18.72
2022-10-19T11:24:21.468Z,18.77
2022-10-19T11:27:04.702Z,18.94
2022-10-19T11:30:04.583Z,19.12
2022-10-19T11:32:46.064Z,19.08
2022-10-19T11:35:15.534Z,19.18
2022-10-19T11:38:18.143Z,19.19
2022-10-19T11:41:17.835Z,19.02
2022-10-19T11:43:54.724Z,19.47
2022-10-19T11:46:35.202Z,19.65
2022-10-19T11:49:25.191Z,19.80
2022-10-19T11:52:05.346Z,19.74
2022-10-19T11:54:59.542Z,19.76
2022-10-19T11:57:31.179Z,19.82
2022-10-19T12:00:37.684Z,19.86
2022-10-19T12:03:25.715Z,19.31
2022-10-19T12:06:22.289Z,19.63
2022-10-19T12:08:55.307Z,19.86
2022-10-19T12:12:04.330Z,19.82
2022-10-19T12:14:34.622Z,20.04
2022-10-19T12:17:08.081Z,19.90
2022-10-19T12:19:44.153Z,19.68
2022-10-19T12:22:24.259Z,20.04
2022-10-19T12:24:53.289Z,20.13
2022-10-19T12:27:30.539Z,19.80
2022-10-19T12:30:03.747Z,19.74
2022-10-19T12:32:37.431Z,20.03
2022-10-19T12:35:27.798Z,20.12
2022-10-19T12:38:05.550Z,20.27
2022-10-19T12:40:32.312Z,20.22
2022-10-19T12:43:18.773Z,19.89
2022-10-19T12:45:54.487Z,20.00
2022-10-19T12:48:24.826Z,19.88
2022-10-19T12:50:53.800Z,20.11
2022-10-19T12:56:12.281Z,20.35
2022-10-19T12:58:46.570Z,20.24
2022-10-19T13:01:22.339Z,20.05
2022-10-19T13:03:54.137Z,20.15
2022-10-19T13:06:23.426Z,20.30
2022-10-19T13:08:53.020Z,20.32
2022-10-19T13:11:21.042Z,20.49
2022-10-19T13:14:01.914Z,20.49
2022-10-19T13:16:28.509Z,20.43
2022-10-19T13:19:13.420Z,20.34
2022-10-19T13:21:52.375Z,20.23
2022-10-19T13:24:25.149Z,20.13
2022-10-19T13:27:04.278Z,20.14
2022-10-19T13:29:44.721Z,20.27
2022-10-19T13:32:39.376Z,20.21
2022-10-19T13:35:25.649Z,20.44
2022-10-19T13:38:12.030Z,20.63
2022-10-19T13:40:59.690Z,20.66
2022-10-19T13:43:30.166Z,20.79
2022-10-19T13:46:29.974Z,20.60
2022-10-19T13:48:56.616Z,20.64
2022-10-19T13:51:57.401Z,20.57
2022-10-19T13:54:42.960Z,20.67
2022-10-19T13:57:34.829Z,20.52
2022-10-19T14:00:13.856Z,20.53
2022-10-19T14:03:11.688Z,20.31
2022-10-19T14:05:57.217Z,20.22
2022-10-19T14:08:47.824Z,20.24
2022-10-19T14:11:21.774Z,20.22
2022-10-19T14:14:10.408Z,20.24
2022-10-19T14:17:04.055Z,20.35
2022-10-19T14:19:42.449Z,20.24
2022-10-19T14:22:26.616Z,20.01
2022-10-19T14:25:01.800Z,19.89
2022-10-19T14:27:30.096Z,19.64
2022-10-19T14:29:57.153Z,19.63
2022-10-19T14:32:27.342Z,19.40
2022-10-19T14:37:31.719Z,19.21
2022-10-19T14:40:26.638Z,19.03
2022-10-19T14:42:56.779Z,19.08
2022-10-19T14:45:29.095Z,19.03
2022-10-19T14:47:57.276Z,18.88
2022-10-19T14:50:29.753Z,18.80
2022-10-19T14:53:30.336Z,18.74
2022-10-19T14:56:02.469Z,18.59
2022-10-19T14:58:36.025Z,18.59
2022-10-19T15:01:02.990Z,18.55
2022-10-19T15:03:30.848Z,18.35
2022-10-19T15:06:06.397Z,18.16
2022-10-19T15:08:43.760Z,18.12
2022-10-19T15:11:33.331Z,17.82
2022-10-19T15:14:06.383Z,17.73
2022-10-19T15:16:39.080Z,17.59
2022-10-19T15:19:14.561Z,17.51
2022-10-19T15:21:41.265Z,17.41
2022-10-19T15:24:22.985Z,17.20
2022-10-19T15:27:06.508Z,17.04
2022-10-19T15:29:35.225Z,16.75
2022-10-19T15:32:16.809Z,16.75
2022-10-19T15:34:45.128Z,16.62
2022-10-19T15:37:20.279Z,16.40
2022-10-19T15:39:47.657Z,16.20
2022-10-19T15:42:29.230Z,16.09
2022-10-19T15:44:55.954Z,15.94
2022-10-19T15:47:24.774Z,15.63
2022-10-19T15:49:55.911Z,15.59
2022-10-19T15:52:29.679Z,15.46
2022-10-19T15:54:59.326Z,15.26
2022-10-19T15:57:34.846Z,15.14
2022-10-19T16:00:22.242Z,15.01
2022-10-19T16:02:48.981Z,14.83
2022-10-19T16:05:15.695Z,14.93
2022-10-19T16:07:42.678Z,14.86
2022-10-19T16:10:16.807Z,14.83
2022-10-19T16:12:43.543Z,14.86
2022-10-19T16:15:22.327Z,14.75
2022-10-19T16:17:52.449Z,14.65
2022-10-19T16:20:19.433Z,14.53
2022-10-19T16:22:47.689Z,14.50
2022-10-19T16:25:15.166Z,14.40
2022-10-19T16:27:42.182Z,14.38
2022-10-19T16:30:09.482Z,14.43
2022-10-19T16:32:36.328Z,14.43
2022-10-19T16:35:03.241Z,14.38
2022-10-19T16:37:30.042Z,14.31
2022-10-19T16:39:56.663Z,14.32
2022-10-19T16:42:25.634Z,14.20
2022-10-19T16:44:55.579Z,14.13
2022-10-19T16:47:22.365Z,14.18
2022-10-19T16:49:56.964Z,14.07
2022-10-19T16:52:23.661Z,13.98
2022-10-19T16:54:50.519Z,13.92
2022-10-19T16:57:17.145Z,13.81
2022-10-19T16:59:43.885Z,13.74
2022-10-19T17:02:11.588Z,13.63
2022-10-19T17:04:39.065Z,13.66
2022-10-19T17:07:05.948Z,13.57
2022-10-19T17:09:52.260Z,13.46
2022-10-19T17:12:19.449Z,13.34
2022-10-19T17:14:46.147Z,13.25
2022-10-19T17:17:13.165Z,13.22
2022-10-19T17:19:39.955Z,13.02
2022-10-19T17:22:09.519Z,13.09
2022-10-19T17:24:37.463Z,13.10
2022-10-19T17:27:04.178Z,13.14
2022-10-19T17:29:30.937Z,13.19
2022-10-19T17:31:58.290Z,13.35
2022-10-19T17:34:25.283Z,13.44
2022-10-19T17:36:51.933Z,13.48
2022-10-19T17:39:25.553Z,13.45
2022-10-19T17:42:01.648Z,13.47
2022-10-19T17:44:30.183Z,13.48
2022-10-19T17:46:56.806Z,13.43
2022-10-19T17:49:23.410Z,13.41
2022-10-19T17:51:52.769Z,13.33
2022-10-19T17:54:19.487Z,13.08
2022-10-19T17:56:46.172Z,13.31
2022-10-19T17:59:13.608Z,13.19
2022-10-19T18:01:40.673Z,13.05
2022-10-19T18:04:07.351Z,12.92
2022-10-19T18:06:36.609Z,12.78
2022-10-19T18:09:06.144Z,12.83
2022-10-19T18:11:38.670Z,12.83
2022-10-19T18:14:08.292Z,12.75
2022-10-19T18:16:46.996Z,13.00
2022-10-19T18:19:16.287Z,13.03
2022-10-19T18:21:45.907Z,13.11
2022-10-19T18:24:21.975Z,13.06
2022-10-19T18:26:50.346Z,13.07
2022-10-19T18:29:21.068Z,13.10
2022-10-19T18:31:55.205Z,13.02
2022-10-19T18:34:24.612Z,12.95
2022-10-19T18:36:52.032Z,12.96
2022-10-19T18:39:19.198Z,12.97
2022-10-19T18:41:46.192Z,12.85
2022-10-19T18:44:13.750Z,12.77
2022-10-19T18:46:41.294Z,12.76
2022-10-19T18:49:08.417Z,12.82
2022-10-19T18:51:35.737Z,12.51
2022-10-19T18:54:02.709Z,12.61
2022-10-19T18:56:29.913Z,12.21
2022-10-19T18:58:57.155Z,11.97
2022-10-19T19:01:26.969Z,11.91
2022-10-19T19:03:56.899Z,12.39
2022-10-19T19:06:29.564Z,12.12
2022-10-19T19:09:01.335Z,12.22
2022-10-19T19:11:36.776Z,12.52
2022-10-19T19:14:15.842Z,12.43
2022-10-19T19:16:44.037Z,12.48
2022-10-19T19:19:13.261Z,12.45
2022-10-19T19:21:44.104Z,12.19
2022-10-19T19:24:14.583Z,12.01
2022-10-19T19:26:43.445Z,11.84
2022-10-19T19:29:10.512Z,11.88
2022-10-19T19:31:37.493Z,11.99
2022-10-19T19:34:06.333Z,12.11
2022-10-19T19:36:33.911Z,12.10
2022-10-19T19:39:01.412Z,12.06
2022-10-19T19:41:32.554Z,12.27
2022-10-19T19:43:59.702Z,12.29
2022-10-19T19:46:27.301Z,12.36
2022-10-19T19:49:02.881Z,12.39
2022-10-19T19:51:31.659Z,12.49
2022-10-19T19:53:59.024Z,12.44
2022-10-19T19:56:26.170Z,12.37
2022-10-19T19:58:58.460Z,12.57
2022-10-19T20:01:26.817Z,12.68
2022-10-19T20:03:53.800Z,12.72
2022-10-19T20:06:24.972Z,12.78
2022-10-19T20:08:52.671Z,12.78
2022-10-19T20:11:19.533Z,12.75
2022-10-19T20:13:46.446Z,12.74
2022-10-19T20:16:15.807Z,12.80
2022-10-19T20:18:45.658Z,12.88
2022-10-19T20:21:12.958Z,12.85
2022-10-19T20:23:39.898Z,12.59
2022-10-19T20:26:06.715Z,12.91
2022-10-19T20:28:33.502Z,12.80
2022-10-19T20:31:05.295Z,12.83
2022-10-19T20:33:34.163Z,12.60
2022-10-19T20:36:10.895Z,12.87
2022-10-19T20:38:38.678Z,12.85
2022-10-19T20:41:09.790Z,12.90
2022-10-19T20:43:37.514Z,12.79
2022-10-19T20:46:17.782Z,12.78
2022-10-19T20:48:45.367Z,12.69
2022-10-19T20:51:32.118Z,12.70
2022-10-19T20:54:01.687Z,12.64
2022-10-19T20:56:31.791Z,12.59
2022-10-19T21:01:30.176Z,12.51
2022-10-19T21:03:59.012Z,12.59
2022-10-19T21:06:27.014Z,12.61
2022-10-19T21:08:54.551Z,12.59
2022-10-19T21:11:24.597Z,12.64
2022-10-19T21:13:56.368Z,12.73
2022-10-19T21:16:27.527Z,12.73
2022-10-19T21:18:54.831Z,12.71
2022-10-19T21:21:24.935Z,12.67
2022-10-19T21:23:55.427Z,12.73
2022-10-19T21:26:25.250Z,12.65
2022-10-19T21:28:55.139Z,12.68
2022-10-19T21:31:23.652Z,12.61
2022-10-19T21:33:51.775Z,12.72
2022-10-19T21:36:20.137Z,12.75
2022-10-19T21:38:47.626Z,12.78
2022-10-19T21:41:16.473Z,12.71
2022-10-19T21:43:43.636Z,12.58
2022-10-19T21:46:16.113Z,12.63
2022-10-19T21:48:43.758Z,12.54
2022-10-19T21:51:36.303Z,12.64
2022-10-19T21:54:08.075Z,12.61
2022-10-19T21:56:34.857Z,12.66
2022-10-19T21:59:01.469Z,12.45
2022-10-19T22:01:29.942Z,12.51
2022-10-19T22:04:01.741Z,12.41
2022-10-19T22:06:30.571Z,12.48
2022-10-19T22:08:58.178Z,12.63
2022-10-19T22:11:25.439Z,12.58
2022-10-19T22:13:57.019Z,12.63
2022-10-19T22:16:24.778Z,12.59
2022-10-19T22:18:52.588Z,12.56
2022-10-19T22:21:26.100Z,12.44
2022-10-19T22:24:00.988Z,12.54
2022-10-19T22:26:33.645Z,12.32
2022-10-19T22:29:01.421Z,12.64
2022-10-19T22:31:29.690Z,12.60
2022-10-19T22:33:56.362Z,12.71
2022-10-19T22:36:22.966Z,12.54
2022-10-19T22:38:49.564Z,12.69
2022-10-19T22:41:16.931Z,12.63
2022-10-19T22:43:43.510Z,12.58
2022-10-19T22:46:10.225Z,12.70
2022-10-19T22:48:37.096Z,12.76
2022-10-19T22:51:03.984Z,12.82
2022-10-19T22:53:30.776Z,12.82
2022-10-19T22:55:57.586Z,12.86
2022-10-19T22:58:24.186Z,12.91
2022-10-19T23:01:26.695Z,12.82
2022-10-19T23:03:54.538Z,12.86
2022-10-19T23:06:21.995Z,12.91
2022-10-19T23:08:49.373Z,12.86
2022-10-19T23:11:16.806Z,12.96
2022-10-19T23:13:43.903Z,12.95
2022-10-19T23:16:10.681Z,13.02
2022-10-19T23:18:39.679Z,13.18
2022-10-19T23:21:10.699Z,13.19
2022-10-19T23:23:37.422Z,13.07
2022-10-19T23:26:05.642Z,13.15
2022-10-19T23:28:34.389Z,13.20
2022-10-19T23:31:30.275Z,13.26
2022-10-19T23:33:56.970Z,12.93
2022-10-19T23:36:27.045Z,12.99
2022-10-19T23:38:54.936Z,12.96
2022-10-19T23:41:22.817Z,12.88
2022-10-19T23:43:49.667Z,12.82
2022-10-19T23:46:16.730Z,12.80
2022-10-19T23:48:43.344Z,12.70
2022-10-19T23:51:12.888Z,12.72
2022-10-19T23:53:41.719Z,12.57
2022-10-19T23:56:27.854Z,12.42
2022-10-19T23:58:55.087Z,12.42
